Terminal Aerodrome Forecast
Issued by NWS Buffalo, NY

Home | Current Version | Previous Version | Text Only | Print | Product List | Glossary On
Versions: 1 2 3 4 5 6 7 8 9 10 11 12 13 14 15 16 17 18 19 20 21 22 23 24 25 26 27 28 29
000
FTUS41 KBUF 281700
TAFART
TAF
KART 281734Z 2818/2918 30011KT 6SM -SN OVC045
      TEMPO 2818/2822 3SM -SHSN OVC015
     FM290000 29006KT 6SM -SHSN BKN030 BKN120
     FM291000 11004KT 4SM -SHSN BKN035 OVC130
     FM291100 14004KT P6SM BKN035 BKN080=

USA.gov is the U.S. government's official web portal to all federal, state and local government web resources and services.